Time,TemperatureF,DewpointF,PressureIn,WindDirection,WindDirectionDegrees,WindSpeedMPH,WindSpeedGustMPH,Humidity,HourlyPrecipIn,Conditions,Clouds,dailyrainin,SolarRadiationWatts/m^2,SoftwareType,DateUTC
2013-10-23 00:04:00,60.0,59.0,30.08,SSE,167,3.0,6.0,98,0.00,,,0.02,0.000000,,2013-10-23 04:04:00,
2013-10-23 00:14:00,60.0,59.0,30.08,SSE,167,3.0,6.0,98,0.00,,,0.02,0.000000,,2013-10-23 04:14:00,
2013-10-23 00:45:00,59.0,58.0,30.08,NW,304,1.0,7.0,98,0.03,,,0.05,0.000000,,2013-10-23 04:45:00,
2013-10-23 00:55:00,59.0,58.0,30.08,NW,304,1.0,7.0,98,0.03,,,0.05,0.000000,,2013-10-23 04:55:00,
2013-10-23 01:04:00,59.0,58.0,30.08,NW,304,1.0,7.0,98,0.03,,,0.05,0.000000,,2013-10-23 05:04:00,
2013-10-23 01:13:00,59.0,58.0,30.08,NW,304,1.0,7.0,98,0.03,,,0.05,0.000000,,2013-10-23 05:13:00,
2013-10-23 01:43:00,58.0,57.0,30.07,SW,233,3.0,8.0,98,0.04,,,0.09,0.000000,,2013-10-23 05:43:00,
2013-10-23 01:53:00,58.0,57.0,30.07,SW,233,3.0,8.0,98,0.04,,,0.09,0.000000,,2013-10-23 05:53:00,
2013-10-23 02:02:00,58.0,57.0,30.07,SW,233,3.0,8.0,98,0.04,,,0.09,0.000000,,2013-10-23 06:02:00,
2013-10-23 02:12:00,58.0,57.0,30.07,SW,233,3.0,8.0,98,0.04,,,0.09,0.000000,,2013-10-23 06:12:00,
2013-10-23 02:42:00,58.0,57.0,30.04,South,187,4.0,10.0,98,0.04,,,0.13,0.000000,,2013-10-23 06:42:00,
2013-10-23 02:52:00,58.0,57.0,30.04,South,187,4.0,10.0,98,0.04,,,0.13,0.000000,,2013-10-23 06:52:00,
2013-10-23 03:01:00,58.0,57.0,30.04,South,187,4.0,10.0,98,0.04,,,0.13,0.000000,,2013-10-23 07:01:00,
2013-10-23 03:12:00,58.0,57.0,30.04,South,187,4.0,10.0,98,0.04,,,0.13,0.000000,,2013-10-23 07:12:00,
2013-10-23 03:42:00,58.0,58.0,30.02,WSW,242,2.0,8.0,99,0.01,,,0.14,0.000000,,2013-10-23 07:42:00,
2013-10-23 03:52:00,58.0,58.0,30.02,WSW,242,2.0,8.0,99,0.01,,,0.14,0.000000,,2013-10-23 07:52:00,
2013-10-23 04:02:00,58.0,58.0,30.02,WSW,242,2.0,8.0,99,0.01,,,0.14,0.000000,,2013-10-23 08:02:00,
2013-10-23 04:12:00,58.0,58.0,30.02,WSW,242,2.0,8.0,99,0.01,,,0.14,0.000000,,2013-10-23 08:12:00,
2013-10-23 04:42:00,58.0,58.0,30.00,SW,234,2.0,5.0,99,0.00,,,0.14,0.000000,,2013-10-23 08:42:00,
2013-10-23 04:53:00,58.0,58.0,30.00,SW,234,2.0,5.0,99,0.00,,,0.14,0.000000,,2013-10-23 08:53:00,
2013-10-23 05:02:00,58.0,58.0,30.00,SW,234,2.0,5.0,99,0.00,,,0.14,0.000000,,2013-10-23 09:02:00,
2013-10-23 05:12:00,58.0,58.0,30.00,SW,234,2.0,5.0,99,0.00,,,0.14,0.000000,,2013-10-23 09:12:00,
2013-10-23 05:53:00,57.0,57.0,29.98,WSW,241,1.0,5.0,99,0.00,,,0.14,0.000000,,2013-10-23 09:53:00,
2013-10-23 06:03:00,57.0,57.0,29.98,WSW,241,1.0,5.0,99,0.00,,,0.14,0.000000,,2013-10-23 10:03:00,
2013-10-23 06:13:00,57.0,57.0,29.98,WSW,241,1.0,5.0,99,0.00,,,0.14,0.000000,,2013-10-23 10:13:00,
2013-10-23 06:43:00,55.0,55.0,29.97,WSW,255,2.0,4.0,100,0.00,,,0.14,0.000000,,2013-10-23 10:43:00,
2013-10-23 06:53:00,55.0,55.0,29.97,WSW,255,2.0,4.0,100,0.00,,,0.14,0.000000,,2013-10-23 10:53:00,
2013-10-23 07:03:00,55.0,55.0,29.97,WSW,255,2.0,4.0,100,0.00,,,0.14,0.000000,,2013-10-23 11:03:00,
2013-10-23 07:12:00,55.0,55.0,29.97,WSW,255,2.0,4.0,100,0.00,,,0.14,0.000000,,2013-10-23 11:12:00,
2013-10-23 07:42:00,55.0,55.0,29.97,NW,312,2.0,5.0,100,0.00,,,0.14,0.000000,,2013-10-23 11:42:00,
2013-10-23 07:52:00,55.0,55.0,29.97,NW,312,2.0,5.0,100,0.00,,,0.14,0.000000,,2013-10-23 11:52:00,
2013-10-23 08:01:00,55.0,55.0,29.97,NW,312,2.0,5.0,100,0.00,,,0.14,0.000000,,2013-10-23 12:01:00,
2013-10-23 08:12:00,55.0,55.0,29.97,NW,312,2.0,5.0,100,0.00,,,0.14,0.000000,,2013-10-23 12:12:00,
2013-10-23 08:42:00,58.0,58.0,29.96,West,275,3.0,9.0,100,0.00,,,0.14,6.000000,,2013-10-23 12:42:00,
2013-10-23 08:52:00,58.0,58.0,29.96,West,275,3.0,9.0,100,0.00,,,0.14,6.000000,,2013-10-23 12:52:00,
2013-10-23 09:01:00,58.0,58.0,29.96,West,275,3.0,9.0,100,0.00,,,0.14,6.000000,,2013-10-23 13:01:00,
2013-10-23 09:12:00,58.0,58.0,29.96,West,275,3.0,9.0,100,0.00,,,0.14,6.000000,,2013-10-23 13:12:00,
2013-10-23 09:43:00,58.0,58.0,29.98,East,79,6.0,12.0,100,0.00,,,0.14,46.000000,,2013-10-23 13:43:00,
2013-10-23 09:52:00,58.0,58.0,29.98,East,79,6.0,12.0,100,0.00,,,0.14,46.000000,,2013-10-23 13:52:00,
2013-10-23 10:02:00,58.0,58.0,29.98,East,79,6.0,12.0,100,0.00,,,0.14,46.000000,,2013-10-23 14:02:00,
2013-10-23 10:11:00,58.0,58.0,29.98,East,79,6.0,12.0,100,0.00,,,0.14,46.000000,,2013-10-23 14:11:00,
2013-10-23 10:42:00,64.0,62.0,29.97,West,274,6.0,16.0,94,0.00,,,0.14,176.000000,,2013-10-23 14:42:00,
2013-10-23 10:52:00,64.0,62.0,29.97,West,274,6.0,16.0,94,0.00,,,0.14,176.000000,,2013-10-23 14:52:00,
2013-10-23 11:02:00,64.0,62.0,29.97,West,274,6.0,16.0,94,0.00,,,0.14,176.000000,,2013-10-23 15:02:00,
2013-10-23 11:11:00,64.0,62.0,29.97,West,274,6.0,16.0,94,0.00,,,0.14,176.000000,,2013-10-23 15:11:00,
2013-10-23 11:53:00,70.0,61.0,29.97,WNW,283,8.0,19.0,74,0.01,,,0.15,506.000000,,2013-10-23 15:53:00,
2013-10-23 12:03:00,70.0,61.0,29.97,WNW,283,8.0,19.0,74,0.01,,,0.15,506.000000,,2013-10-23 16:03:00,
2013-10-23 12:12:00,70.0,61.0,29.97,WNW,283,8.0,19.0,74,0.01,,,0.15,506.000000,,2013-10-23 16:12:00,
2013-10-23 12:43:00,71.0,56.0,29.96,West,268,10.0,24.0,59,0.00,,,0.15,704.000000,,2013-10-23 16:43:00,
2013-10-23 12:53:00,71.0,56.0,29.96,West,268,10.0,24.0,59,0.00,,,0.15,704.000000,,2013-10-23 16:53:00,
2013-10-23 13:03:00,71.0,56.0,29.96,West,268,10.0,24.0,59,0.00,,,0.15,704.000000,,2013-10-23 17:03:00,
2013-10-23 13:12:00,71.0,56.0,29.96,West,268,10.0,24.0,59,0.00,,,0.15,704.000000,,2013-10-23 17:12:00,
2013-10-23 13:44:00,74.0,56.0,29.93,WNW,282,9.0,24.0,53,0.00,,,0.15,771.000000,,2013-10-23 17:44:00,
2013-10-23 13:52:00,74.0,56.0,29.93,WNW,282,9.0,24.0,53,0.00,,,0.15,771.000000,,2013-10-23 17:52:00,
2013-10-23 14:02:00,74.0,56.0,29.93,WNW,282,9.0,24.0,53,0.00,,,0.15,771.000000,,2013-10-23 18:02:00,
2013-10-23 14:12:00,74.0,56.0,29.93,WNW,282,9.0,24.0,53,0.00,,,0.15,771.000000,,2013-10-23 18:12:00,
2013-10-23 15:53:00,72.0,53.0,29.93,NW,305,10.0,26.0,51,-99.99,,,0.15,338.000000,,2013-10-23 19:53:00,
2013-10-23 16:03:00,72.0,53.0,29.93,NW,305,10.0,26.0,51,-99.99,,,0.15,338.000000,,2013-10-23 20:03:00,
2013-10-23 16:12:00,72.0,53.0,29.93,NW,305,10.0,26.0,51,-99.99,,,0.15,338.000000,,2013-10-23 20:12:00,
2013-10-23 16:42:00,68.0,49.0,29.95,NW,307,9.0,24.0,51,0.00,,,0.15,441.000000,,2013-10-23 20:42:00,
2013-10-23 16:52:00,68.0,49.0,29.95,NW,307,9.0,24.0,51,0.00,,,0.15,441.000000,,2013-10-23 20:52:00,
2013-10-23 17:02:00,68.0,49.0,29.95,NW,307,9.0,24.0,51,0.00,,,0.15,441.000000,,2013-10-23 21:02:00,
2013-10-23 17:12:00,68.0,49.0,29.95,NW,307,9.0,24.0,51,0.00,,,0.15,441.000000,,2013-10-23 21:12:00,
2013-10-23 17:43:00,67.0,45.0,29.98,NW,305,12.0,24.0,45,0.00,,,0.15,308.000000,,2013-10-23 21:43:00,
2013-10-23 17:54:00,67.0,45.0,29.98,NW,305,12.0,24.0,45,0.00,,,0.15,308.000000,,2013-10-23 21:54:00,
2013-10-23 18:04:00,67.0,45.0,29.98,NW,305,12.0,24.0,45,0.00,,,0.15,308.000000,,2013-10-23 22:04:00,
2013-10-23 18:13:00,67.0,45.0,29.98,NW,305,12.0,24.0,45,0.00,,,0.15,308.000000,,2013-10-23 22:13:00,
2013-10-23 18:43:00,63.0,49.0,30.01,NW,305,4.0,14.0,60,0.00,,,0.15,126.000000,,2013-10-23 22:43:00,
2013-10-23 18:54:00,63.0,49.0,30.01,NW,305,4.0,14.0,60,0.00,,,0.15,126.000000,,2013-10-23 22:54:00,
2013-10-23 19:03:00,63.0,49.0,30.01,NW,305,4.0,14.0,60,0.00,,,0.15,126.000000,,2013-10-23 23:03:00,
2013-10-23 19:12:00,63.0,49.0,30.01,NW,305,4.0,14.0,60,0.00,,,0.15,126.000000,,2013-10-23 23:12:00,
2013-10-23 20:43:00,53.0,48.0,30.08,NW,305,4.0,7.0,83,0.00,,,0.14,0.000000,,2013-10-24 00:43:00,
2013-10-23 20:52:00,53.0,48.0,30.08,NW,305,4.0,7.0,83,0.00,,,0.14,0.000000,,2013-10-24 00:52:00,
2013-10-23 21:01:00,53.0,48.0,30.08,NW,305,4.0,7.0,83,0.00,,,0.14,0.000000,,2013-10-24 01:01:00,
2013-10-23 21:11:00,53.0,48.0,30.08,NW,305,4.0,7.0,83,0.00,,,0.14,0.000000,,2013-10-24 01:11:00,
2013-10-23 21:42:00,52.0,44.0,30.11,NW,323,6.0,9.0,73,0.00,,,0.13,0.000000,,2013-10-24 01:42:00,
2013-10-23 21:52:00,52.0,44.0,30.11,NW,323,6.0,9.0,73,0.00,,,0.13,0.000000,,2013-10-24 01:52:00,
2013-10-23 22:03:00,52.0,44.0,30.11,NW,323,6.0,9.0,73,0.00,,,0.13,0.000000,,2013-10-24 02:03:00,
2013-10-23 22:12:00,52.0,44.0,30.11,NW,323,6.0,9.0,73,0.00,,,0.13,0.000000,,2013-10-24 02:12:00,
2013-10-23 22:52:00,55.0,40.0,30.16,NNW,330,10.0,18.0,57,0.00,,,0.13,0.000000,,2013-10-24 02:52:00,
2013-10-23 23:02:00,55.0,40.0,30.16,NNW,330,10.0,18.0,57,0.00,,,0.13,0.000000,,2013-10-24 03:02:00,
2013-10-23 23:12:00,55.0,40.0,30.16,NNW,330,10.0,18.0,57,0.00,,,0.13,0.000000,,2013-10-24 03:12:00,
2013-10-23 23:44:00,54.0,37.0,30.19,NNW,337,11.0,24.0,53,0.00,,,0.13,0.000000,,2013-10-24 03:44:00,
2013-10-23 23:55:00,54.0,37.0,30.19,NNW,337,11.0,24.0,53,0.00,,,0.13,0.000000,,2013-10-24 03:55:00,